Terminal Aerodrome Forecast
Issued by NWS Blacksburg, VA

Current Version | Previous Version | Text Only | Print | Product List | Glossary Off
Versions: 1 2 3 4 5 6 7 8 9 10 11 12 13 14 15 16

000
FTUS41 KRNK 310528
TAFBLF
TAF
KBLF 310528Z 3106/0106 00000KT P6SM SKC
     FM310900 00000KT 5SM BR SKC
      TEMPO 3109/3112 1 1/2SM BR
     FM311330 08003KT P6SM SCT250
     FM311700 07004KT P6SM BKN060
     FM312200 VRB03KT P6SM SCT050=

USA.gov is the U.S. government's official web portal to all federal, state and local government web resources and services.